sensor_id;sensor_type;location;lat;lon;timestamp;pressure;altitude;pressure_sealevel;temperature;humidity
3444;BME280;1736;52.068;6.968;2023-02-17T00:01:44;101368.41;;;9.26;100.00
3444;BME280;1736;52.068;6.968;2023-02-17T00:04:11;101369.88;;;9.30;100.00
3444;BME280;1736;52.068;6.968;2023-02-17T00:06:37;101373.59;;;9.28;100.00
3444;BME280;1736;52.068;6.968;2023-02-17T00:09:04;101369.66;;;9.33;100.00
3444;BME280;1736;52.068;6.968;2023-02-17T00:11:33;101367.00;;;9.33;100.00
3444;BME280;1736;52.068;6.968;2023-02-17T00:13:59;101367.75;;;9.35;100.00
3444;BME280;1736;52.068;6.968;2023-02-17T00:16:26;101370.50;;;9.34;100.00
3444;BME280;1736;52.068;6.968;2023-02-17T00:18:55;101370.41;;;9.35;100.00
3444;BME280;1736;52.068;6.968;2023-02-17T00:21:24;101364.59;;;9.30;100.00
3444;BME280;1736;52.068;6.968;2023-02-17T00:23:51;101370.94;;;9.28;100.00
3444;BME280;1736;52.068;6.968;2023-02-17T00:26:19;101369.13;;;9.28;100.00
3444;BME280;1736;52.068;6.968;2023-02-17T00:28:48;101374.94;;;9.33;100.00
3444;BME280;1736;52.068;6.968;2023-02-17T00:31:16;101372.31;;;9.33;100.00
3444;BME280;1736;52.068;6.968;2023-02-17T00:33:43;101367.44;;;9.27;100.00
3444;BME280;1736;52.068;6.968;2023-02-17T00:36:12;101358.53;;;9.28;100.00
3444;BME280;1736;52.068;6.968;2023-02-17T00:38:39;101369.88;;;9.30;100.00
3444;BME280;1736;52.068;6.968;2023-02-17T00:41:05;101362.03;;;9.29;100.00
3444;BME280;1736;52.068;6.968;2023-02-17T00:43:35;101364.91;;;9.38;100.00
3444;BME280;1736;52.068;6.968;2023-02-17T00:46:03;101362.47;;;9.35;100.00
3444;BME280;1736;52.068;6.968;2023-02-17T00:48:30;101365.41;;;9.31;100.00
3444;BME280;1736;52.068;6.968;2023-02-17T00:50:56;101357.16;;;9.35;100.00
3444;BME280;1736;52.068;6.968;2023-02-17T00:53:23;101352.94;;;9.33;100.00
3444;BME280;1736;52.068;6.968;2023-02-17T00:55:49;101357.16;;;9.35;100.00
3444;BME280;1736;52.068;6.968;2023-02-17T00:58:16;101347.09;;;9.40;100.00
3444;BME280;1736;52.068;6.968;2023-02-17T01:00:42;101334.06;;;9.37;100.00
3444;BME280;1736;52.068;6.968;2023-02-17T01:03:10;101340.84;;;9.41;100.00
3444;BME280;1736;52.068;6.968;2023-02-17T01:05:39;101337.66;;;9.36;100.00
3444;BME280;1736;52.068;6.968;2023-02-17T01:08:06;101330.16;;;9.43;100.00
3444;BME280;1736;52.068;6.968;2023-02-17T01:10:35;101336.59;;;9.39;100.00
3444;BME280;1736;52.068;6.968;2023-02-17T01:13:02;101326.13;;;9.37;100.00
3444;BME280;1736;52.068;6.968;2023-02-17T01:15:28;101335.78;;;9.38;100.00
3444;BME280;1736;52.068;6.968;2023-02-17T01:17:55;101339.34;;;9.37;100.00
3444;BME280;1736;52.068;6.968;2023-02-17T01:20:23;101325.19;;;9.38;100.00
3444;BME280;1736;52.068;6.968;2023-02-17T01:22:49;101327.59;;;9.41;100.00
3444;BME280;1736;52.068;6.968;2023-02-17T01:25:16;101332.69;;;9.44;100.00
3444;BME280;1736;52.068;6.968;2023-02-17T01:27:42;101338.19;;;9.41;100.00
3444;BME280;1736;52.068;6.968;2023-02-17T01:30:09;101332.91;;;9.41;100.00
3444;BME280;1736;52.068;6.968;2023-02-17T01:32:36;101338.75;;;9.46;100.00
3444;BME280;1736;52.068;6.968;2023-02-17T01:35:03;101342.56;;;9.42;100.00
3444;BME280;1736;52.068;6.968;2023-02-17T01:37:32;101334.63;;;9.42;100.00
3444;BME280;1736;52.068;6.968;2023-02-17T01:39:58;101332.38;;;9.49;100.00
3444;BME280;1736;52.068;6.968;2023-02-17T01:42:25;101328.34;;;9.43;100.00
3444;BME280;1736;52.068;6.968;2023-02-17T01:45:28;101330.03;;;9.44;100.00
3444;BME280;1736;52.068;6.968;2023-02-17T01:47:59;101323.69;;;9.47;100.00
3444;BME280;1736;52.068;6.968;2023-02-17T01:50:31;101322.41;;;9.52;100.00
3444;BME280;1736;52.068;6.968;2023-02-17T01:53:01;101322.22;;;9.55;100.00
3444;BME280;1736;52.068;6.968;2023-02-17T01:55:30;101313.31;;;9.56;100.00
3444;BME280;1736;52.068;6.968;2023-02-17T01:58:00;101307.19;;;9.56;100.00
3444;BME280;1736;52.068;6.968;2023-02-17T02:00:31;101308.22;;;9.53;100.00
3444;BME280;1736;52.068;6.968;2023-02-17T02:02:59;101301.22;;;9.52;100.00
3444;BME280;1736;52.068;6.968;2023-02-17T02:05:27;101283.53;;;9.53;100.00
3444;BME280;1736;52.068;6.968;2023-02-17T02:07:55;101278.13;;;9.54;100.00
3444;BME280;1736;52.068;6.968;2023-02-17T02:10:23;101264.66;;;9.57;100.00
3444;BME280;1736;52.068;6.968;2023-02-17T02:12:50;101261.28;;;9.55;100.00
3444;BME280;1736;52.068;6.968;2023-02-17T02:15:19;101242.22;;;9.50;100.00
3444;BME280;1736;52.068;6.968;2023-02-17T02:18:07;101235.94;;;9.51;100.00
3444;BME280;1736;52.068;6.968;2023-02-17T02:23:55;101245.88;;;9.60;100.00
3444;BME280;1736;52.068;6.968;2023-02-17T02:29:40;101245.28;;;9.57;100.00
3444;BME280;1736;52.068;6.968;2023-02-17T02:32:46;101255.78;;;9.58;100.00
3444;BME280;1736;52.068;6.968;2023-02-17T02:35:17;101255.31;;;9.64;100.00
3444;BME280;1736;52.068;6.968;2023-02-17T02:37:49;101278.97;;;9.67;100.00
3444;BME280;1736;52.068;6.968;2023-02-17T02:40:19;101262.97;;;9.69;100.00
3444;BME280;1736;52.068;6.968;2023-02-17T02:42:47;101275.97;;;9.72;100.00
3444;BME280;1736;52.068;6.968;2023-02-17T02:45:16;101272.38;;;9.73;100.00
3444;BME280;1736;52.068;6.968;2023-02-17T02:47:47;101253.47;;;9.77;100.00
3444;BME280;1736;52.068;6.968;2023-02-17T02:50:16;101250.63;;;9.68;100.00
3444;BME280;1736;52.068;6.968;2023-02-17T02:52:53;101245.13;;;9.71;100.00
3444;BME280;1736;52.068;6.968;2023-02-17T02:55:33;101244.81;;;9.75;100.00
3444;BME280;1736;52.068;6.968;2023-02-17T02:58:10;101253.28;;;9.80;100.00
3444;BME280;1736;52.068;6.968;2023-02-17T03:00:42;101249.91;;;9.78;100.00
3444;BME280;1736;52.068;6.968;2023-02-17T03:03:17;101242.56;;;9.82;100.00
3444;BME280;1736;52.068;6.968;2023-02-17T03:05:54;101250.41;;;9.83;100.00
3444;BME280;1736;52.068;6.968;2023-02-17T03:08:27;101247.97;;;9.80;100.00
3444;BME280;1736;52.068;6.968;2023-02-17T03:10:56;101243.75;;;9.78;100.00
3444;BME280;1736;52.068;6.968;2023-02-17T03:13:23;101242.47;;;9.83;100.00
3444;BME280;1736;52.068;6.968;2023-02-17T03:15:50;101238.84;;;9.84;100.00
3444;BME280;1736;52.068;6.968;2023-02-17T03:18:18;101237.88;;;9.85;100.00
3444;BME280;1736;52.068;6.968;2023-02-17T03:20:48;101246.69;;;9.86;100.00
3444;BME280;1736;52.068;6.968;2023-02-17T03:23:16;101234.50;;;9.83;100.00
3444;BME280;1736;52.068;6.968;2023-02-17T03:25:42;101232.81;;;9.82;100.00
3444;BME280;1736;52.068;6.968;2023-02-17T03:28:09;101226.56;;;9.83;100.00
3444;BME280;1736;52.068;6.968;2023-02-17T03:30:36;101223.81;;;9.85;100.00
3444;BME280;1736;52.068;6.968;2023-02-17T03:33:03;101219.13;;;9.88;100.00
3444;BME280;1736;52.068;6.968;2023-02-17T03:35:31;101219.88;;;9.90;100.00
3444;BME280;1736;52.068;6.968;2023-02-17T03:37:57;101216.78;;;9.84;100.00
3444;BME280;1736;52.068;6.968;2023-02-17T03:40:24;101221.25;;;9.83;100.00
3444;BME280;1736;52.068;6.968;2023-02-17T03:42:50;101233.13;;;9.90;100.00
3444;BME280;1736;52.068;6.968;2023-02-17T03:45:17;101240.00;;;9.93;100.00
3444;BME280;1736;52.068;6.968;2023-02-17T03:47:43;101240.09;;;9.91;100.00
3444;BME280;1736;52.068;6.968;2023-02-17T03:50:10;101223.81;;;9.85;100.00
3444;BME280;1736;52.068;6.968;2023-02-17T03:52:38;101206.94;;;9.86;100.00
3444;BME280;1736;52.068;6.968;2023-02-17T03:55:05;101203.41;;;9.85;100.00
3444;BME280;1736;52.068;6.968;2023-02-17T03:57:31;101205.34;;;9.83;100.00
3444;BME280;1736;52.068;6.968;2023-02-17T03:59:59;101200.25;;;9.80;100.00
3444;BME280;1736;52.068;6.968;2023-02-17T04:02:25;101198.13;;;9.85;100.00
3444;BME280;1736;52.068;6.968;2023-02-17T04:04:52;101199.31;;;9.81;100.00
3444;BME280;1736;52.068;6.968;2023-02-17T04:07:18;101192.81;;;9.85;100.00
3444;BME280;1736;52.068;6.968;2023-02-17T04:09:46;101183.41;;;9.81;100.00
3444;BME280;1736;52.068;6.968;2023-02-17T04:12:12;101181.28;;;9.86;100.00
3444;BME280;1736;52.068;6.968;2023-02-17T04:14:39;101182.47;;;9.82;100.00
3444;BME280;1736;52.068;6.968;2023-02-17T04:17:05;101209.50;;;9.75;100.00
3444;BME280;1736;52.068;6.968;2023-02-17T04:19:32;101199.31;;;9.81;100.00
3444;BME280;1736;52.068;6.968;2023-02-17T04:21:58;101202.91;;;9.80;100.00
3444;BME280;1736;52.068;6.968;2023-02-17T04:24:25;101201.94;;;9.81;100.00
3444;BME280;1736;52.068;6.968;2023-02-17T04:26:53;101189.44;;;9.83;100.00
3444;BME280;1736;52.068;6.968;2023-02-17T04:29:19;101182.88;;;9.76;100.00
3444;BME280;1736;52.068;6.968;2023-02-17T04:31:46;101188.19;;;9.76;100.00
3444;BME280;1736;52.068;6.968;2023-02-17T04:34:12;101201.44;;;9.76;100.00
3444;BME280;1736;52.068;6.968;2023-02-17T04:36:39;101192.03;;;9.72;100.00
3444;BME280;1736;52.068;6.968;2023-02-17T04:39:05;101184.81;;;9.74;100.00
3444;BME280;1736;52.068;6.968;2023-02-17T04:41:32;101190.53;;;9.68;100.00
3444;BME280;1736;52.068;6.968;2023-02-17T04:44:00;101194.25;;;9.78;100.00
3444;BME280;1736;52.068;6.968;2023-02-17T04:46:26;101187.47;;;9.74;100.00
3444;BME280;1736;52.068;6.968;2023-02-17T04:48:53;101191.06;;;9.73;100.00
3444;BME280;1736;52.068;6.968;2023-02-17T04:51:19;101192.22;;;9.69;100.00
3444;BME280;1736;52.068;6.968;2023-02-17T04:53:46;101203.88;;;9.79;100.00
3444;BME280;1736;52.068;6.968;2023-02-17T04:56:12;101194.25;;;9.78;100.00
3444;BME280;1736;52.068;6.968;2023-02-17T04:58:39;101184.56;;;9.77;100.00
3444;BME280;1736;52.068;6.968;2023-02-17T05:01:07;101189.66;;;9.80;100.00
3444;BME280;1736;52.068;6.968;2023-02-17T05:03:33;101174.06;;;9.76;100.00
3444;BME280;1736;52.068;6.968;2023-02-17T05:06:00;101165.81;;;9.80;100.00
3444;BME280;1736;52.068;6.968;2023-02-17T05:08:26;101177.81;;;9.73;100.00
3444;BME280;1736;52.068;6.968;2023-02-17T05:10:53;101154.59;;;9.77;100.00
3444;BME280;1736;52.068;6.968;2023-02-17T05:13:19;101156.84;;;9.70;100.00
3444;BME280;1736;52.068;6.968;2023-02-17T05:15:46;101163.72;;;9.73;100.00
3444;BME280;1736;52.068;6.968;2023-02-17T05:18:14;101162.16;;;9.70;100.00
3444;BME280;1736;52.068;6.968;2023-02-17T05:20:40;101161.28;;;9.70;100.00
3444;BME280;1736;52.068;6.968;2023-02-17T05:23:07;101150.41;;;9.85;100.00
3444;BME280;1736;52.068;6.968;2023-02-17T05:25:33;101153.63;;;9.78;100.00
3444;BME280;1736;52.068;6.968;2023-02-17T05:28:00;101140.69;;;9.73;100.00
3444;BME280;1736;52.068;6.968;2023-02-17T05:30:27;101145.69;;;9.78;100.00
3444;BME280;1736;52.068;6.968;2023-02-17T05:32:54;101143.13;;;9.76;100.00
3444;BME280;1736;52.068;6.968;2023-02-17T05:35:22;101145.78;;;9.76;100.00
3444;BME280;1736;52.068;6.968;2023-02-17T05:37:48;101135.56;;;9.83;100.00
3444;BME280;1736;52.068;6.968;2023-02-17T05:40:15;101150.28;;;9.87;100.00
3444;BME280;1736;52.068;6.968;2023-02-17T05:42:41;101147.16;;;9.82;100.00
3444;BME280;1736;52.068;6.968;2023-02-17T05:45:08;101134.31;;;9.76;100.00
3444;BME280;1736;52.068;6.968;2023-02-17T05:47:35;101135.19;;;9.76;100.00
3444;BME280;1736;52.068;6.968;2023-02-17T05:50:01;101159.53;;;9.81;100.00
3444;BME280;1736;52.068;6.968;2023-02-17T05:52:29;101164.22;;;9.78;100.00
3444;BME280;1736;52.068;6.968;2023-02-17T05:54:56;101162.72;;;9.86;100.00
3444;BME280;1736;52.068;6.968;2023-02-17T05:57:22;101151.38;;;9.84;100.00
3444;BME280;1736;52.068;6.968;2023-02-17T05:59:49;101162.47;;;9.89;100.00
3444;BME280;1736;52.068;6.968;2023-02-17T06:02:15;101152.34;;;9.83;100.00
3444;BME280;1736;52.068;6.968;2023-02-17T06:04:42;101161.88;;;9.86;100.00
3444;BME280;1736;52.068;6.968;2023-02-17T06:07:08;101154.78;;;9.86;100.00
3444;BME280;1736;52.068;6.968;2023-02-17T06:09:36;101152.72;;;9.90;100.00
3444;BME280;1736;52.068;6.968;2023-02-17T06:12:03;101144.28;;;9.85;100.00
3444;BME280;1736;52.068;6.968;2023-02-17T06:14:30;101144.81;;;9.77;100.00
3444;BME280;1736;52.068;6.968;2023-02-17T06:16:56;101148.22;;;9.79;100.00
3444;BME280;1736;52.068;6.968;2023-02-17T06:19:24;101145.56;;;9.79;100.00
3444;BME280;1736;52.068;6.968;2023-02-17T06:21:51;101143.13;;;9.76;100.00
3444;BME280;1736;52.068;6.968;2023-02-17T06:24:17;101150.47;;;9.73;100.00
3444;BME280;1736;52.068;6.968;2023-02-17T06:26:45;101143.81;;;9.67;100.00
3444;BME280;1736;52.068;6.968;2023-02-17T06:29:12;101145.38;;;9.70;100.00
3444;BME280;1736;52.068;6.968;2023-02-17T06:31:38;101141.09;;;9.56;100.00
3444;BME280;1736;52.068;6.968;2023-02-17T06:34:05;101148.53;;;9.51;100.00
3444;BME280;1736;52.068;6.968;2023-02-17T06:36:31;101142.72;;;9.46;100.00
3444;BME280;1736;52.068;6.968;2023-02-17T06:38:58;101137.63;;;9.43;100.00
3444;BME280;1736;52.068;6.968;2023-02-17T06:41:24;101137.63;;;9.43;100.00
3444;BME280;1736;52.068;6.968;2023-02-17T06:43:52;101124.28;;;9.45;100.00
3444;BME280;1736;52.068;6.968;2023-02-17T06:46:19;101116.44;;;9.43;100.00
3444;BME280;1736;52.068;6.968;2023-02-17T06:48:45;101133.81;;;9.47;100.00
3444;BME280;1736;52.068;6.968;2023-02-17T06:51:12;101130.41;;;9.45;100.00
3444;BME280;1736;52.068;6.968;2023-02-17T06:53:38;101147.06;;;9.47;100.00
3444;BME280;1736;52.068;6.968;2023-02-17T06:56:05;101150.84;;;9.56;100.00
3444;BME280;1736;52.068;6.968;2023-02-17T06:58:32;101143.13;;;9.53;100.00
3444;BME280;1736;52.068;6.968;2023-02-17T07:01:02;101143.94;;;9.53;100.00
3444;BME280;1736;52.068;6.968;2023-02-17T07:03:30;101144.91;;;9.52;100.00
3444;BME280;1736;52.068;6.968;2023-02-17T07:05:57;101135.78;;;9.56;100.00
3444;BME280;1736;52.068;6.968;2023-02-17T07:08:24;101138.66;;;9.53;100.00
3444;BME280;1736;52.068;6.968;2023-02-17T07:10:51;101149.03;;;9.56;100.00
3444;BME280;1736;52.068;6.968;2023-02-17T07:13:17;101142.34;;;9.63;100.00
3444;BME280;1736;52.068;6.968;2023-02-17T07:15:44;101139.69;;;9.63;100.00
3444;BME280;1736;52.068;6.968;2023-02-17T07:18:13;101132.72;;;9.62;100.00
3444;BME280;1736;52.068;6.968;2023-02-17T07:20:39;101126.09;;;9.68;100.00
3444;BME280;1736;52.068;6.968;2023-02-17T07:23:06;101141.78;;;9.71;100.00
3444;BME280;1736;52.068;6.968;2023-02-17T07:25:32;101132.25;;;9.68;100.00
3444;BME280;1736;52.068;6.968;2023-02-17T07:27:59;101130.97;;;9.74;100.00
3444;BME280;1736;52.068;6.968;2023-02-17T07:30:25;101136.66;;;9.80;100.00
3444;BME280;1736;52.068;6.968;2023-02-17T07:32:52;101131.56;;;9.77;100.00
3444;BME280;1736;52.068;6.968;2023-02-17T07:35:20;101131.84;;;9.85;100.00
3444;BME280;1736;52.068;6.968;2023-02-17T07:37:46;101121.72;;;9.79;100.00
3444;BME280;1736;52.068;6.968;2023-02-17T07:40:13;101114.88;;;9.88;100.00
3444;BME280;1736;52.068;6.968;2023-02-17T07:42:39;101119.34;;;9.87;100.00
3444;BME280;1736;52.068;6.968;2023-02-17T07:45:06;101109.63;;;9.99;100.00
3444;BME280;1736;52.068;6.968;2023-02-17T07:47:33;101120.06;;;9.89;100.00
3444;BME280;1736;52.068;6.968;2023-02-17T07:50:00;101117.41;;;9.89;100.00
3444;BME280;1736;52.068;6.968;2023-02-17T07:52:27;101114.06;;;9.98;100.00
3444;BME280;1736;52.068;6.968;2023-02-17T07:54:54;101112.16;;;10.00;100.00
3444;BME280;1736;52.068;6.968;2023-02-17T07:57:20;101113.63;;;10.04;100.00
3444;BME280;1736;52.068;6.968;2023-02-17T07:59:47;101115.25;;;9.94;100.00
3444;BME280;1736;52.068;6.968;2023-02-17T08:02:13;101107.09;;;9.97;100.00
3444;BME280;1736;52.068;6.968;2023-02-17T08:04:40;101114.06;;;9.98;100.00
3444;BME280;1736;52.068;6.968;2023-02-17T08:07:07;101106.31;;;10.08;100.00
3444;BME280;1736;52.068;6.968;2023-02-17T08:09:35;101129.16;;;9.98;100.00
3444;BME280;1736;52.068;6.968;2023-02-17T08:12:20;101129.75;;;10.01;100.00
3444;BME280;1736;52.068;6.968;2023-02-17T08:15:07;101119.25;;;10.12;100.00
3444;BME280;1736;52.068;6.968;2023-02-17T08:17:34;101125.13;;;10.05;100.00
3444;BME280;1736;52.068;6.968;2023-02-17T08:20:01;101124.53;;;10.12;100.00
3444;BME280;1736;52.068;6.968;2023-02-17T08:22:27;101109.94;;;10.07;100.00
3444;BME280;1736;52.068;6.968;2023-02-17T08:24:55;101110.09;;;10.16;100.00
3444;BME280;1736;52.068;6.968;2023-02-17T08:27:22;101112.25;;;10.11;100.00
3444;BME280;1736;52.068;6.968;2023-02-17T08:29:48;101119.03;;;10.15;100.00
3444;BME280;1736;52.068;6.968;2023-02-17T08:32:16;101126.50;;;10.21;100.00
3444;BME280;1736;52.068;6.968;2023-02-17T08:34:43;101120.59;;;10.18;100.00
3444;BME280;1736;52.068;6.968;2023-02-17T08:37:10;101106.84;;;10.24;100.00
3444;BME280;1736;52.068;6.968;2023-02-17T08:39:37;101120.38;;;10.32;100.00
3444;BME280;1736;52.068;6.968;2023-02-17T08:42:05;101115.94;;;10.32;100.00
3444;BME280;1736;52.068;6.968;2023-02-17T08:44:33;101104.59;;;10.30;100.00
3444;BME280;1736;52.068;6.968;2023-02-17T08:47:00;101119.31;;;10.34;100.00
3444;BME280;1736;52.068;6.968;2023-02-17T08:49:29;101131.63;;;10.35;100.00
3444;BME280;1736;52.068;6.968;2023-02-17T08:51:57;101131.38;;;10.38;100.00
3444;BME280;1736;52.068;6.968;2023-02-17T08:54:23;101134.13;;;10.37;100.00
3444;BME280;1736;52.068;6.968;2023-02-17T08:56:50;101124.66;;;10.45;100.00
3444;BME280;1736;52.068;6.968;2023-02-17T08:59:18;101131.19;;;10.52;100.00
3444;BME280;1736;52.068;6.968;2023-02-17T09:01:44;101145.66;;;10.59;100.00
3444;BME280;1736;52.068;6.968;2023-02-17T09:04:12;101148.78;;;10.53;100.00
3444;BME280;1736;52.068;6.968;2023-02-17T09:06:41;101154.47;;;10.60;100.00
3444;BME280;1736;52.068;6.968;2023-02-17T09:09:10;101148.56;;;10.68;100.00
3444;BME280;1736;52.068;6.968;2023-02-17T09:11:37;101139.41;;;10.61;100.00
3444;BME280;1736;52.068;6.968;2023-02-17T09:14:04;101161.63;;;10.71;100.00
3444;BME280;1736;52.068;6.968;2023-02-17T09:16:32;101166.31;;;10.67;100.00
3444;BME280;1736;52.068;6.968;2023-02-17T09:18:59;101146.91;;;10.78;100.00
3444;BME280;1736;52.068;6.968;2023-02-17T09:21:25;101156.44;;;10.80;100.00
3444;BME280;1736;52.068;6.968;2023-02-17T09:23:52;101152.59;;;10.84;100.00
3444;BME280;1736;52.068;6.968;2023-02-17T09:26:19;101172.53;;;10.90;100.00
3444;BME280;1736;52.068;6.968;2023-02-17T09:28:46;101177.84;;;10.90;100.00
3444;BME280;1736;52.068;6.968;2023-02-17T09:31:14;101174.69;;;10.96;100.00
3444;BME280;1736;52.068;6.968;2023-02-17T09:33:44;101170.56;;;10.92;100.00
3444;BME280;1736;52.068;6.968;2023-02-17T09:36:14;101180.97;;;10.95;100.00
3444;BME280;1736;52.068;6.968;2023-02-17T09:38:42;101163.84;;;10.99;100.00
3444;BME280;1736;52.068;6.968;2023-02-17T09:41:15;101168.91;;;11.02;100.00
3444;BME280;1736;52.068;6.968;2023-02-17T09:43:43;101162.16;;;10.98;100.00
3444;BME280;1736;52.068;6.968;2023-02-17T09:46:14;101198.13;;;11.02;100.00
3444;BME280;1736;52.068;6.968;2023-02-17T09:48:44;101181.47;;;11.11;100.00
3444;BME280;1736;52.068;6.968;2023-02-17T09:51:18;101183.66;;;11.06;100.00
3444;BME280;1736;52.068;6.968;2023-02-17T09:53:51;101171.09;;;11.19;100.00
3444;BME280;1736;52.068;6.968;2023-02-17T09:56:24;101173.38;;;11.12;100.00
3444;BME280;1736;52.068;6.968;2023-02-17T09:58:57;101166.03;;;11.27;100.00
3444;BME280;1736;52.068;6.968;2023-02-17T10:01:30;101150.09;;;11.27;100.00
3444;BME280;1736;52.068;6.968;2023-02-17T10:04:03;101143.09;;;11.26;100.00
3444;BME280;1736;52.068;6.968;2023-02-17T10:06:33;101117.47;;;11.36;100.00
3444;BME280;1736;52.068;6.968;2023-02-17T10:09:06;101129.53;;;11.29;100.00
3444;BME280;1736;52.068;6.968;2023-02-17T10:11:38;101106.38;;;11.31;100.00
3444;BME280;1736;52.068;6.968;2023-02-17T10:14:10;101112.03;;;11.48;100.00
3444;BME280;1736;52.068;6.968;2023-02-17T10:16:43;101106.81;;;11.47;100.00
3444;BME280;1736;52.068;6.968;2023-02-17T10:19:17;101105.38;;;11.54;100.00
3444;BME280;1736;52.068;6.968;2023-02-17T10:21:50;101101.50;;;11.58;100.00
3444;BME280;1736;52.068;6.968;2023-02-17T10:24:20;101103.91;;;11.72;100.00
3444;BME280;1736;52.068;6.968;2023-02-17T10:26:57;101123.72;;;11.68;100.00
3444;BME280;1736;52.068;6.968;2023-02-17T10:29:35;101124.47;;;11.70;100.00
3444;BME280;1736;52.068;6.968;2023-02-17T10:32:15;101135.91;;;11.81;100.00
3444;BME280;1736;52.068;6.968;2023-02-17T10:34:56;101139.41;;;11.82;100.00
3444;BME280;1736;52.068;6.968;2023-02-17T10:37:34;101144.84;;;11.80;99.95
3444;BME280;1736;52.068;6.968;2023-02-17T10:40:18;101140.34;;;11.81;100.00
3444;BME280;1736;52.068;6.968;2023-02-17T10:42:46;101141.09;;;11.83;99.88
3444;BME280;1736;52.068;6.968;2023-02-17T10:45:25;101123.94;;;11.87;98.33
3444;BME280;1736;52.068;6.968;2023-02-17T10:47:56;101141.56;;;11.88;98.48
3444;BME280;1736;52.068;6.968;2023-02-17T10:50:27;101128.97;;;11.90;98.29
3444;BME280;1736;52.068;6.968;2023-02-17T10:52:54;101128.56;;;12.05;96.95
3444;BME280;1736;52.068;6.968;2023-02-17T10:55:28;101135.00;;;12.03;96.92
3444;BME280;1736;52.068;6.968;2023-02-17T10:57:59;101112.97;;;12.01;96.58
3444;BME280;1736;52.068;6.968;2023-02-17T11:00:30;101121.47;;;11.95;95.98
3444;BME280;1736;52.068;6.968;2023-02-17T11:02:56;101128.97;;;11.90;96.58
3444;BME280;1736;52.068;6.968;2023-02-17T11:05:25;101126.81;;;11.95;96.34
3444;BME280;1736;52.068;6.968;2023-02-17T11:07:59;101136.47;;;11.96;96.11
3444;BME280;1736;52.068;6.968;2023-02-17T11:10:30;101114.19;;;11.97;95.70
3444;BME280;1736;52.068;6.968;2023-02-17T11:12:57;101110.78;;;12.06;95.36
3444;BME280;1736;52.068;6.968;2023-02-17T11:15:26;101116.09;;;12.06;94.50
3444;BME280;1736;52.068;6.968;2023-02-17T11:17:58;101110.41;;;12.10;94.59
3444;BME280;1736;52.068;6.968;2023-02-17T11:20:33;101125.66;;;12.08;93.67
3444;BME280;1736;52.068;6.968;2023-02-17T11:23:20;101129.16;;;12.09;94.29
3444;BME280;1736;52.068;6.968;2023-02-17T11:25:55;101143.88;;;12.13;94.22
3444;BME280;1736;52.068;6.968;2023-02-17T11:28:23;101142.66;;;12.17;93.83
3444;BME280;1736;52.068;6.968;2023-02-17T11:30:53;101142.41;;;12.20;93.87
3444;BME280;1736;52.068;6.968;2023-02-17T11:33:21;101131.78;;;12.20;93.85
3444;BME280;1736;52.068;6.968;2023-02-17T11:35:52;101119.44;;;12.19;93.64
3444;BME280;1736;52.068;6.968;2023-02-17T11:38:23;101111.31;;;12.20;93.17
3444;BME280;1736;52.068;6.968;2023-02-17T11:40:52;101095.81;;;12.25;93.58
3444;BME280;1736;52.068;6.968;2023-02-17T11:43:19;101120.88;;;12.23;93.41
3444;BME280;1736;52.068;6.968;2023-02-17T11:45:53;101120.88;;;12.23;93.87
3444;BME280;1736;52.068;6.968;2023-02-17T11:48:42;101144.88;;;12.12;94.44
3444;BME280;1736;52.068;6.968;2023-02-17T11:51:17;101156.28;;;12.03;95.17
3444;BME280;1736;52.068;6.968;2023-02-17T11:53:55;101142.00;;;12.04;94.84
3444;BME280;1736;52.068;6.968;2023-02-17T11:56:28;101138.75;;;12.00;94.66
3444;BME280;1736;52.068;6.968;2023-02-17T11:59:12;101147.09;;;11.96;95.23
3444;BME280;1736;52.068;6.968;2023-02-17T12:01:55;101151.56;;;11.95;95.47
3444;BME280;1736;52.068;6.968;2023-02-17T12:04:27;101164.50;;;11.89;96.17
3444;BME280;1736;52.068;6.968;2023-02-17T12:07:11;101164.03;;;11.95;96.28
3444;BME280;1736;52.068;6.968;2023-02-17T12:09:47;101163.06;;;11.96;95.87
3444;BME280;1736;52.068;6.968;2023-02-17T12:12:22;101151.44;;;11.97;95.98
3444;BME280;1736;52.068;6.968;2023-02-17T12:15:02;101164.25;;;12.03;95.96
3444;BME280;1736;52.068;6.968;2023-02-17T12:17:42;101147.56;;;12.01;95.63
3444;BME280;1736;52.068;6.968;2023-02-17T12:20:26;101152.88;;;12.01;95.58
3444;BME280;1736;52.068;6.968;2023-02-17T12:23:06;101152.28;;;11.97;96.04
3444;BME280;1736;52.068;6.968;2023-02-17T12:25:40;101137.03;;;11.99;96.32
3444;BME280;1736;52.068;6.968;2023-02-17T12:28:40;101147.22;;;11.94;96.11
3444;BME280;1736;52.068;6.968;2023-02-17T12:31:19;101160.16;;;11.99;96.40
3444;BME280;1736;52.068;6.968;2023-02-17T12:33:56;101156.28;;;11.92;96.92
3444;BME280;1736;52.068;6.968;2023-02-17T12:36:28;101151.47;;;11.86;97.66
3444;BME280;1736;52.068;6.968;2023-02-17T12:38:58;101145.69;;;11.81;98.16
3444;BME280;1736;52.068;6.968;2023-02-17T12:41:32;101147.41;;;11.82;98.43
3444;BME280;1736;52.068;6.968;2023-02-17T12:44:03;101153.78;;;11.79;98.63
3444;BME280;1736;52.068;6.968;2023-02-17T12:46:35;101162.59;;;11.80;98.67
3444;BME280;1736;52.068;6.968;2023-02-17T12:49:07;101165.50;;;11.77;99.12
3444;BME280;1736;52.068;6.968;2023-02-17T12:51:38;101163.13;;;11.74;99.29
3444;BME280;1736;52.068;6.968;2023-02-17T12:54:11;101181.47;;;11.77;99.71
3444;BME280;1736;52.068;6.968;2023-02-17T12:56:54;101194.06;;;11.75;99.93
3444;BME280;1736;52.068;6.968;2023-02-17T12:59:26;101199.97;;;11.67;100.00
3444;BME280;1736;52.068;6.968;2023-02-17T13:02:00;101195.97;;;11.73;100.00
3444;BME280;1736;52.068;6.968;2023-02-17T13:04:28;101207.34;;;11.64;100.00
3444;BME280;1736;52.068;6.968;2023-02-17T13:07:07;101212.50;;;11.54;100.00
3444;BME280;1736;52.068;6.968;2023-02-17T13:09:36;101225.91;;;11.53;100.00
3444;BME280;1736;52.068;6.968;2023-02-17T13:12:17;101220.88;;;11.50;100.00
3444;BME280;1736;52.068;6.968;2023-02-17T13:14:44;101228.97;;;11.48;100.00
3444;BME280;1736;52.068;6.968;2023-02-17T13:17:23;101222.19;;;11.44;100.00
3444;BME280;1736;52.068;6.968;2023-02-17T13:20:02;101240.56;;;11.36;100.00
3444;BME280;1736;52.068;6.968;2023-02-17T13:22:29;101230.28;;;11.21;100.00
3444;BME280;1736;52.068;6.968;2023-02-17T13:24:56;101233.72;;;11.10;100.00
3444;BME280;1736;52.068;6.968;2023-02-17T13:27:32;101237.00;;;11.03;100.00